Flight Track Log - Related Links

Times and Time Zones

All times are in EST time to prevent confusion due to time zone crossing. See the EJA929 flight status page for this flight to view local times or setup timezone preferences in your user account.

Time Position Orientation Groundspeed Altitude Reporting Facility
EST Latitude Longitude Course Direction KTS MPH feet Rate Location/Type
Fri 01:36:13 PM 39.5372 -107.7678 285° West 122 140 8,000  Level Denver Center
Fri 01:37:14 PM 39.5767 -107.7178 44° Northeast 230 265 12,700 4,244 Climbing Denver Center
Fri 01:38:16 PM 39.5797 -107.6028 88° East 288 331 16,700 3,000 Climbing Denver Center
Fri 01:39:18 PM 39.5800 -107.4872 90° East 331 381 18,900 2,468 Climbing Denver Center
Fri 01:40:00 PM 39.6359 -106.7488 79° East  Level FlightAware Approximate
Fri 01:40:20 PM 39.5831 -107.3339 88° East 374 430 21,800  Level Denver Center
Fri 01:41:22 PM 39.5867 -107.1914 88° East 404 465 24,500 2,789 Climbing Denver Center
Fri 01:43:25 PM 39.6094 -106.8656 85° East 453 521 30,400 2,627 Climbing Denver Center
Fri 01:44:27 PM 39.6317 -106.7083 80° East 462 532 32,600 1,839 Climbing Denver Center
Fri 01:45:29 PM 39.6589 -106.5122 80° East 492 566 34,200 2,032 Climbing Denver Center
Fri 01:46:31 PM 39.6842 -106.3225 80° East 512 589 36,800 1,355 Climbing Denver Center
Fri 01:47:33 PM 39.7106 -106.1292 80° East 518 596 37,000 97 Climbing Denver Center
Fri 01:48:35 PM 39.7356 -105.9406 80° East 529 609 37,000  Level Denver Center
Fri 01:49:37 PM 39.7578 -105.7517 81° East 531 611 37,000  Level Denver Center
Fri 01:50:39 PM 39.7817 -105.5608 81° East 535 616 37,000  Level Denver Center
Fri 01:51:41 PM 39.8053 -105.3689 81° East 538 619 37,000  Level Denver Center
Fri 01:52:43 PM 39.8278 -105.1850 81° East 518 596 37,000  Level Denver Center
Fri 01:53:44 PM 39.8497 -105.0031 81° East 509 586 37,000  Level Denver Center
Fri 01:54:46 PM 39.8750 -104.7850 81° East 504 580 37,000  Level Denver Center
Fri 01:55:48 PM 39.8972 -104.6028 81° East 503 579 37,000  Level Denver Center
Fri 01:56:50 PM 39.9292 -104.4128 78° East 526 605 37,000  Level Denver Center
Fri 01:57:52 PM 39.9608 -104.2217 78° East 537 618 37,000  Level Denver Center
Fri 01:58:55 PM 39.9908 -104.0344 78° East 530 610 37,000  Level Denver Center
Fri 01:59:57 PM 40.0208 -103.8517 78° East 520 598 37,000  Level Denver Center
Fri 02:00:59 PM 40.0494 -103.6700 78° East 513 590 37,000  Level Denver Center
Fri 02:02:01 PM 40.0853 -103.4464 78° East 523 602 37,000  Level Denver Center
Fri 02:03:03 PM 40.1356 -103.2681 70° East 528 608 37,000  Level Denver Center
Fri 02:04:05 PM 40.1917 -103.0925 67° East 526 605 37,000  Level Denver Center
Fri 02:05:07 PM 40.2472 -102.9153 68° East 527 606 37,000  Level Denver Center
Fri 02:06:09 PM 40.3006 -102.7403 68° East 521 600 37,000  Level Denver Center
Fri 02:07:11 PM 40.3567 -102.5614 68° East 511 588 37,000  Level Denver Center
Fri 02:08:13 PM 40.4156 -102.3686 68° East 509 586 37,000  Level Denver Center
Fri 02:09:15 PM 40.4664 -102.2033 68° East 511 588 37,000  Level Denver Center
Fri 02:10:17 PM 40.5258 -102.0081 68° East 515 593 37,000  Level Denver Center
Fri 02:11:19 PM 40.5753 -101.8411 69° East 512 589 37,000  Level Denver Center
Fri 02:12:21 PM 40.6342 -101.6450 68° East 515 593 37,000  Level Denver Center
Fri 02:13:23 PM 40.6844 -101.4753 69° East 519 597 37,000  Level Denver Center
Fri 02:14:25 PM 40.7442 -101.2750 68° East 525 604 37,000  Level Denver Center
Fri 02:15:27 PM 40.7944 -101.1028 69° East 524 603 37,000  Level Denver Center
Fri 02:16:29 PM 40.8442 -100.9308 69° East 522 601 37,000  Level Denver Center
Fri 02:17:31 PM 40.8964 -100.7469 69° East 515 593 37,000  Level Denver Center
Fri 02:18:33 PM 40.9536 -100.5539 69° East 515 593 37,000  Level Denver Center
Fri 02:19:36 PM 41.0033 -100.3786 69° East 525 604 37,000  Level Denver Center
Fri 02:20:38 PM 41.0606 -100.1742 70° East 529 609 37,000  Level Denver Center
Fri 02:21:40 PM 41.1108 -99.9961 69° East 534 615 37,000  Level Denver Center
Fri 02:22:42 PM 41.1686 -99.7889 70° East 536 617 37,000  Level Denver Center
Fri 02:23:44 PM 41.2169 -99.6106 70° East 537 618 37,000  Level Denver Center
Fri 02:24:46 PM 41.2697 -99.4206 70° East 538 619 37,000  Level Denver Center
Fri 02:25:48 PM 41.3200 -99.2300 71° East 541 623 37,000  Level Denver Center
Fri 02:26:50 PM 41.3719 -99.0392 70° East 542 624 37,000  Level Denver Center
Fri 02:27:55 PM 41.4292 -98.8258 70° East 542 624 37,000  Level Minneapolis Center
Fri 02:28:57 PM 41.4811 -98.6350 70° East 545 627 37,000  Level Minneapolis Center
Fri 02:29:59 PM 41.5358 -98.4228 71° East 544 626 37,000  Level Minneapolis Center
Fri 02:31:00 PM 41.5872 -98.2303 70° East 546 628 37,000  Level Minneapolis Center
Fri 02:32:02 PM 41.6394 -98.0261 71° East 541 623 37,000  Level Minneapolis Center
Fri 02:33:04 PM 41.6878 -97.8386 71° East 535 616 37,000  Level Minneapolis Center
Fri 02:34:05 PM 41.7350 -97.6508 71° East 534 615 37,000 -780 Level Minneapolis Center
Fri 02:35:07 PM 41.7817 -97.4622 72° East 532 612 35,400 -968 Descending Minneapolis Center
Fri 02:36:09 PM 41.8303 -97.2719 71° East 536 617 35,000 -194 Descending Minneapolis Center
Fri 02:37:11 PM 41.8764 -97.0867 71° East 527 606 35,000  Level Minneapolis Center
Fri 02:38:12 PM 41.9206 -96.9072 72° East 511 588 35,000  Level Minneapolis Center
Fri 02:39:14 PM 41.9756 -96.6908 71° East 508 585 35,000  Level Minneapolis Center
Fri 02:40:16 PM 42.0197 -96.5086 72° East 510 587 35,000  Level Minneapolis Center
Fri 02:41:17 PM 42.0639 -96.3283 72° East 508 585 35,000  Level Minneapolis Center
Fri 02:42:19 PM 42.1069 -96.1478 72° East 506 582 35,000 -919 Level Minneapolis Center
Fri 02:43:21 PM 42.1500 -95.9644 72° East 509 586 33,100 -2,488 Descending Minneapolis Center
Fri 02:44:22 PM 42.1933 -95.7789 72° East 515 593 29,900 -3,073 Descending Minneapolis Center
Fri 02:45:24 PM 42.2358 -95.5981 72° East 503 579 26,800 -2,903 Descending Minneapolis Center
Fri 02:46:26 PM 42.2742 -95.4281 73° East 488 562 23,900 -2,613 Descending Minneapolis Center
Fri 02:47:28 PM 42.3100 -95.2689 73° East 455 524 21,400 -2,927 Descending Minneapolis Center
Fri 02:48:29 PM 42.3503 -95.0972 72° East 410 472 17,900 -2,878 Descending Minneapolis Center
Fri 02:49:31 PM 42.3811 -94.9594 73° East 388 447 15,500 -2,032 Descending Minneapolis Center
Fri 02:50:33 PM 42.4094 -94.8358 73° East 353 406 13,700 -1,220 Descending Minneapolis Center
Fri 02:51:34 PM 42.4358 -94.7183 73° East 332 382 13,000 -927 Descending Minneapolis Center
Fri 02:52:36 PM 42.4589 -94.6103 74° East 306 352 11,800 -968 Descending Minneapolis Center
Fri 02:53:38 PM 42.4836 -94.5017 73° East 290 334 11,000 -390 Descending Minneapolis Center
Fri 02:54:39 PM 42.5072 -94.3958 73° East 293 337 11,000  Level Minneapolis Center
Fri 02:55:41 PM 42.5322 -94.2919 72° East 293 337 11,000  Level Minneapolis Center
Fri 02:56:43 PM 42.5556 -94.1894 73° East 288 331 11,000  Level Minneapolis Center
Fri 02:57:45 PM 42.5839 -94.0603 73° East 297 342 11,000  Level Minneapolis Center
Fri 02:58:46 PM 42.6100 -93.9506 72° East 305 351 11,000  Level Minneapolis Center
Fri 02:59:48 PM 42.6269 -93.8372 78° East 308 354 11,000  Level Minneapolis Center
Fri 03:00:50 PM 42.5597 -93.8247 172° South 269 310 11,000  Level Minneapolis Center
Fri 03:01:52 PM 42.5314 -93.8986 243° Southwest 227 261 11,000  Level Minneapolis Center
Fri 03:02:54 PM 42.5072 -93.9767 247° West 225 259 11,000 -439 Level Minneapolis Center
Fri 03:03:55 PM 42.4750 -94.0617 243° Southwest 219 252 10,100 -1,561 Descending Minneapolis Center
Fri 03:04:57 PM 42.4608 -94.1106 249° West 153 176 7,800 -2,081 Descending Minneapolis Center
Fri 03:05:59 PM 42.4819 -94.1397 314° West 142 163 5,800 -1,935 Descending Minneapolis Center
Fri 03:07:00 PM 42.5500 -94.1833 256° West  Level FlightAware Approximate
Fri 03:14:00 PM 42.5512 -94.1918 256° West  Level Estimated
Fri 03:15:00 PM 42.5500 -94.1833 256° West  Level FlightAware Approximate
Fri 03:16:00 PM 42.5512 -94.1918 256° West  Level Estimated
Fri 03:17:00 PM 42.5500 -94.1833 256° West  Level FlightAware Approximate
Fri 03:18:00 PM 42.5512 -94.1918 256° West  Level Estimated
Fri 03:19:00 PM 42.5500 -94.1833 256° West  Level FlightAware Approximate
Fri 03:20:00 PM 42.5512 -94.1918 256° West  Level Estimated

Login

Don't have an account? Register now (free) for customized features, flight alerts, and more!